createdAt,value
2023-02-22T00:00:19.021Z,6.63
2023-02-22T00:02:10.515Z,6.20
2023-02-22T00:03:43.633Z,6.47
2023-02-22T00:05:20.281Z,6.70
2023-02-22T00:06:53.778Z,6.07
2023-02-22T00:08:30.530Z,6.33
2023-02-22T00:10:03.669Z,6.77
2023-02-22T00:11:38.581Z,6.13
2023-02-22T00:13:13.244Z,6.30
2023-02-22T00:14:46.324Z,6.13
2023-02-22T00:16:23.258Z,5.73
2023-02-22T00:17:57.168Z,5.83
2023-02-22T00:19:30.988Z,6.17
2023-02-22T00:21:10.524Z,6.10
2023-02-22T00:22:46.296Z,6.00
2023-02-22T00:24:23.863Z,5.90
2023-02-22T00:25:58.732Z,6.10
2023-02-22T00:27:31.808Z,6.53
2023-02-22T00:29:04.877Z,5.97
2023-02-22T00:30:38.007Z,5.63
2023-02-22T00:32:10.194Z,5.83
2023-02-22T00:33:44.507Z,5.83
2023-02-22T00:35:19.705Z,5.73
2023-02-22T00:36:54.152Z,5.70
2023-02-22T00:38:26.575Z,5.70
2023-02-22T00:39:59.672Z,6.27
2023-02-22T00:41:32.764Z,6.20
2023-02-22T00:43:07.209Z,6.53
2023-02-22T00:44:40.280Z,5.77
2023-02-22T00:46:15.125Z,5.80
2023-02-22T00:47:48.291Z,6.23
2023-02-22T00:49:20.416Z,5.93
2023-02-22T00:50:56.162Z,5.90
2023-02-22T00:52:29.910Z,5.60
2023-02-22T00:54:02.995Z,6.33
2023-02-22T00:55:38.656Z,6.40
2023-02-22T00:57:12.294Z,6.53
2023-02-22T00:58:45.671Z,6.07
2023-02-22T01:00:21.522Z,6.40
2023-02-22T01:01:54.760Z,6.03
2023-02-22T01:03:28.019Z,6.30
2023-02-22T01:05:02.026Z,6.10
2023-02-22T01:06:35.611Z,6.47
2023-02-22T01:08:11.535Z,6.83
2023-02-22T01:09:44.605Z,6.57
2023-02-22T01:11:18.698Z,6.03
2023-02-22T01:12:52.294Z,6.73
2023-02-22T01:14:27.875Z,6.27
2023-02-22T01:16:01.156Z,6.00
2023-02-22T01:17:34.222Z,6.90
2023-02-22T01:19:07.332Z,6.17
2023-02-22T01:20:40.502Z,6.87
2023-02-22T01:22:14.192Z,6.73
2023-02-22T01:23:48.755Z,6.67
2023-02-22T01:25:23.178Z,6.30
2023-02-22T01:26:56.261Z,7.13
2023-02-22T01:28:29.756Z,7.00
2023-02-22T01:30:08.476Z,7.07
2023-02-22T01:31:44.049Z,7.60
2023-02-22T01:33:18.233Z,7.30
2023-02-22T01:34:52.862Z,7.40
2023-02-22T01:36:25.916Z,7.50
2023-02-22T01:37:59.704Z,8.00
2023-02-22T01:39:34.312Z,7.67
2023-02-22T01:41:07.652Z,7.77
2023-02-22T01:42:42.623Z,8.30
2023-02-22T01:44:27.730Z,7.97
2023-02-22T01:46:02.982Z,7.93
2023-02-22T01:47:35.129Z,7.23
2023-02-22T01:49:10.347Z,7.70
2023-02-22T01:50:47.464Z,8.00
2023-02-22T01:52:22.767Z,8.87
2023-02-22T01:53:59.636Z,8.60
2023-02-22T01:55:34.775Z,8.57
2023-02-22T01:57:13.581Z,8.00
2023-02-22T01:58:50.230Z,7.90
2023-02-22T02:00:27.577Z,8.20
2023-02-22T02:02:01.170Z,8.10
2023-02-22T02:03:37.529Z,8.70
2023-02-22T02:05:10.733Z,8.40
2023-02-22T02:06:44.793Z,8.10
2023-02-22T02:08:31.831Z,8.20
2023-02-22T02:10:11.473Z,8.40
2023-02-22T02:11:46.694Z,8.43
2023-02-22T02:13:18.912Z,8.47
2023-02-22T02:14:52.216Z,8.70
2023-02-22T02:16:34.419Z,8.17
2023-02-22T02:18:09.224Z,8.70
2023-02-22T02:19:48.038Z,8.10
2023-02-22T02:21:44.902Z,8.60
2023-02-22T02:23:44.229Z,8.90
2023-02-22T02:25:54.280Z,8.43
2023-02-22T02:27:33.124Z,8.97
2023-02-22T02:29:59.990Z,8.60
2023-02-22T02:32:14.924Z,7.67
2023-02-22T02:33:55.961Z,8.60
2023-02-22T02:35:40.196Z,8.73
2023-02-22T02:37:20.160Z,8.47
2023-02-22T02:38:58.787Z,8.87
2023-02-22T02:40:37.311Z,8.60
2023-02-22T02:42:16.869Z,8.67
2023-02-22T02:43:57.522Z,8.13
2023-02-22T02:45:36.824Z,8.27
2023-02-22T02:47:14.502Z,8.03
2023-02-22T02:48:56.687Z,8.27
2023-02-22T02:50:32.614Z,8.77
2023-02-22T02:52:07.668Z,7.93
2023-02-22T02:53:45.406Z,8.17
2023-02-22T02:55:18.759Z,7.87
2023-02-22T02:56:52.527Z,7.87
2023-02-22T02:58:25.604Z,8.63
2023-02-22T03:00:00.463Z,8.03
2023-02-22T03:01:55.029Z,7.70
2023-02-22T03:04:02.996Z,7.87
2023-02-22T03:05:56.278Z,7.73
2023-02-22T03:07:45.191Z,7.80
2023-02-22T03:09:34.957Z,7.97
2023-02-22T03:11:16.171Z,7.67
2023-02-22T03:13:02.266Z,8.10
2023-02-22T03:14:43.604Z,8.47
2023-02-22T03:16:21.501Z,7.97
2023-02-22T03:18:02.688Z,7.83
2023-02-22T03:19:39.336Z,7.63
2023-02-22T03:21:21.337Z,8.50
2023-02-22T03:22:59.492Z,8.47
2023-02-22T03:24:34.664Z,8.13
2023-02-22T03:26:14.085Z,8.03
2023-02-22T03:27:50.515Z,7.93
2023-02-22T03:29:27.312Z,7.43
2023-02-22T03:31:04.972Z,7.77
2023-02-22T03:32:41.209Z,7.50
2023-02-22T03:34:17.707Z,9.13
2023-02-22T03:35:56.889Z,8.17
2023-02-22T03:37:34.080Z,7.73
2023-02-22T03:39:12.279Z,8.10
2023-02-22T03:40:48.085Z,8.23
2023-02-22T03:42:25.399Z,8.20
2023-02-22T03:44:02.808Z,8.63
2023-02-22T03:45:37.861Z,8.33
2023-02-22T03:47:13.997Z,8.23
2023-02-22T03:48:51.581Z,7.73
2023-02-22T03:50:29.912Z,7.97
2023-02-22T03:52:06.044Z,8.30
2023-02-22T03:53:39.907Z,7.73
2023-02-22T03:55:17.735Z,8.20
2023-02-22T03:56:54.595Z,8.33
2023-02-22T03:58:32.620Z,8.40
2023-02-22T04:00:07.680Z,8.27
2023-02-22T04:01:46.001Z,7.57
2023-02-22T04:03:19.271Z,7.40
2023-02-22T04:04:52.460Z,8.03
2023-02-22T04:06:24.651Z,8.87
2023-02-22T04:08:00.478Z,7.73
2023-02-22T04:09:34.129Z,8.37
2023-02-22T04:11:06.375Z,7.77
2023-02-22T04:12:40.028Z,8.60
2023-02-22T04:14:14.308Z,8.30
2023-02-22T04:15:47.565Z,7.93
2023-02-22T04:17:20.718Z,7.83
2023-02-22T04:18:52.914Z,8.13
2023-02-22T04:20:26.265Z,7.33
2023-02-22T04:22:02.414Z,8.37
2023-02-22T04:23:41.284Z,8.47
2023-02-22T04:25:15.755Z,7.10
2023-02-22T04:26:50.162Z,8.30
2023-02-22T04:28:23.818Z,7.93
2023-02-22T04:30:00.870Z,9.03
2023-02-22T04:31:35.758Z,8.73
2023-02-22T04:33:07.879Z,9.17
2023-02-22T04:34:41.712Z,8.73
2023-02-22T04:36:16.088Z,8.90
2023-02-22T04:37:50.247Z,8.57
2023-02-22T04:39:25.236Z,8.97
2023-02-22T04:40:57.496Z,8.27
2023-02-22T04:42:30.646Z,10.07
2023-02-22T04:44:03.825Z,9.80
2023-02-22T04:45:37.953Z,8.90
2023-02-22T04:47:12.331Z,9.03
2023-02-22T04:48:45.873Z,9.00
2023-02-22T04:50:20.456Z,9.27
2023-02-22T04:51:52.816Z,9.30
2023-02-22T04:53:30.096Z,9.80
2023-02-22T04:55:04.802Z,9.00
2023-02-22T04:56:38.869Z,9.90
2023-02-22T04:58:12.274Z,10.00
2023-02-22T04:59:45.522Z,10.37
2023-02-22T05:01:18.489Z,10.03
2023-02-22T05:02:53.169Z,10.47
2023-02-22T05:04:26.290Z,9.77
2023-02-22T05:05:58.533Z,9.67
2023-02-22T05:07:31.659Z,10.00
2023-02-22T05:09:08.466Z,10.63
2023-02-22T05:10:42.902Z,10.83
2023-02-22T05:12:16.265Z,9.50
2023-02-22T05:13:49.654Z,8.97
2023-02-22T05:15:25.346Z,10.27
2023-02-22T05:16:58.991Z,10.47
2023-02-22T05:18:32.183Z,10.77
2023-02-22T05:20:08.544Z,9.90
2023-02-22T05:21:41.658Z,11.13
2023-02-22T05:23:15.477Z,10.83
2023-02-22T05:24:48.577Z,11.53
2023-02-22T05:26:22.011Z,9.97
2023-02-22T05:27:57.380Z,10.50
2023-02-22T05:29:30.501Z,10.23
2023-02-22T05:31:03.315Z,9.83
2023-02-22T05:32:36.445Z,10.00
2023-02-22T05:34:09.801Z,10.10
2023-02-22T05:35:42.878Z,10.50
2023-02-22T05:37:16.006Z,10.87
2023-02-22T05:38:49.354Z,10.13
2023-02-22T05:40:24.295Z,9.77
2023-02-22T05:41:58.915Z,9.87
2023-02-22T05:43:31.210Z,9.63
2023-02-22T05:45:04.717Z,9.60
2023-02-22T05:46:37.988Z,9.63
2023-02-22T05:48:12.940Z,10.17
2023-02-22T05:49:46.013Z,9.27
2023-02-22T05:51:19.664Z,10.20
2023-02-22T05:52:53.282Z,10.30
2023-02-22T05:54:26.414Z,9.47
2023-02-22T05:55:59.551Z,9.57
2023-02-22T05:57:34.053Z,10.20
2023-02-22T05:59:07.150Z,10.47
2023-02-22T06:00:40.341Z,9.37
2023-02-22T06:02:13.876Z,10.37
2023-02-22T06:03:48.711Z,10.07
2023-02-22T06:05:22.030Z,9.70
2023-02-22T06:06:55.272Z,9.77
2023-02-22T06:08:28.540Z,10.63
2023-02-22T06:10:01.634Z,10.53
2023-02-22T06:11:34.879Z,9.97
2023-02-22T06:13:09.308Z,10.53
2023-02-22T06:14:45.901Z,10.60
2023-02-22T06:16:19.162Z,10.07
2023-02-22T06:17:53.641Z,9.77
2023-02-22T06:19:26.731Z,10.03
2023-02-22T06:21:01.024Z,9.70
2023-02-22T06:22:34.084Z,9.90
2023-02-22T06:24:08.039Z,10.47
2023-02-22T06:25:41.546Z,10.20
2023-02-22T06:27:14.956Z,11.03
2023-02-22T06:28:49.769Z,10.43
2023-02-22T06:30:25.266Z,10.03
2023-02-22T06:31:58.446Z,9.43
2023-02-22T06:33:31.634Z,9.10
2023-02-22T06:35:04.053Z,9.97
2023-02-22T06:36:37.159Z,9.03
2023-02-22T06:38:10.226Z,9.07
2023-02-22T06:39:43.408Z,10.00
2023-02-22T06:41:16.764Z,9.97
2023-02-22T06:42:50.674Z,9.83
2023-02-22T06:44:24.142Z,9.70
2023-02-22T06:45:57.289Z,9.80
2023-02-22T06:47:30.856Z,8.73
2023-02-22T06:49:04.301Z,10.03
2023-02-22T06:50:37.366Z,9.37
2023-02-22T06:52:10.904Z,10.20
2023-02-22T06:53:44.845Z,9.50
2023-02-22T06:55:19.836Z,9.70
2023-02-22T06:56:52.931Z,10.47
2023-02-22T06:58:27.148Z,9.23
2023-02-22T07:00:01.583Z,9.67
2023-02-22T07:01:36.264Z,9.93
2023-02-22T07:03:09.370Z,9.97
2023-02-22T07:04:43.641Z,10.10
2023-02-22T07:06:16.992Z,9.57
2023-02-22T07:07:52.563Z,9.83
2023-02-22T07:09:25.668Z,10.37
2023-02-22T07:10:58.988Z,9.53
2023-02-22T07:12:32.601Z,10.53
2023-02-22T07:14:05.897Z,9.97
2023-02-22T07:15:40.382Z,10.03
2023-02-22T07:17:14.152Z,10.30
2023-02-22T07:18:47.842Z,9.97
2023-02-22T07:20:22.293Z,10.50
2023-02-22T07:21:59.232Z,10.40
2023-02-22T07:23:32.821Z,9.13
2023-02-22T07:25:07.012Z,9.87
2023-02-22T07:26:42.245Z,9.97
2023-02-22T07:28:15.343Z,9.50
2023-02-22T07:29:47.487Z,9.33
2023-02-22T07:31:21.970Z,9.70
2023-02-22T07:32:56.285Z,9.53
2023-02-22T07:34:30.731Z,9.67
2023-02-22T07:36:04.171Z,9.23
2023-02-22T07:37:37.241Z,9.90
2023-02-22T07:39:11.145Z,9.77
2023-02-22T07:40:44.823Z,10.10
2023-02-22T07:42:18.045Z,10.50
2023-02-22T07:43:52.430Z,10.10
2023-02-22T07:45:27.307Z,10.27
2023-02-22T07:47:02.523Z,10.67
2023-02-22T07:48:35.807Z,11.03
2023-02-22T07:50:09.104Z,10.60
2023-02-22T07:51:42.345Z,10.70
2023-02-22T07:53:19.133Z,9.90
2023-02-22T07:54:52.240Z,10.07
2023-02-22T07:56:25.515Z,10.50
2023-02-22T07:58:00.473Z,10.33
2023-02-22T07:59:34.104Z,10.57
2023-02-22T08:01:07.284Z,9.50
2023-02-22T08:02:41.481Z,9.23
2023-02-22T08:04:14.636Z,10.53
2023-02-22T08:05:49.900Z,10.50
2023-02-22T08:07:23.070Z,10.30
2023-02-22T08:08:56.180Z,9.67
2023-02-22T08:10:30.965Z,9.70
2023-02-22T08:12:04.090Z,10.20
2023-02-22T08:13:38.217Z,10.47
2023-02-22T08:15:17.310Z,10.00
2023-02-22T08:16:50.583Z,11.07
2023-02-22T08:18:26.783Z,9.87
2023-02-22T08:19:59.944Z,10.10
2023-02-22T08:21:33.074Z,10.77
2023-02-22T08:23:07.177Z,11.07
2023-02-22T08:24:40.658Z,10.83
2023-02-22T08:26:18.468Z,11.20
2023-02-22T08:27:51.759Z,12.00
2023-02-22T08:29:27.833Z,10.50
2023-02-22T08:31:01.096Z,10.43
2023-02-22T08:32:35.477Z,12.13
2023-02-22T08:34:09.982Z,11.10
2023-02-22T08:35:43.810Z,11.40
2023-02-22T08:37:18.188Z,10.90
2023-02-22T08:38:51.345Z,10.80
2023-02-22T08:40:27.925Z,9.83
2023-02-22T08:42:01.089Z,10.80
2023-02-22T08:43:34.365Z,11.90
2023-02-22T08:45:08.840Z,10.60
2023-02-22T08:46:41.995Z,11.50
2023-02-22T08:48:15.383Z,14.83
2023-02-22T08:49:49.905Z,11.90
2023-02-22T08:51:23.129Z,12.87
2023-02-22T08:52:59.359Z,10.90
2023-02-22T08:54:32.578Z,10.63
2023-02-22T08:56:06.068Z,9.77
2023-02-22T08:57:39.165Z,10.93
2023-02-22T08:59:12.775Z,10.50
2023-02-22T09:00:46.190Z,9.87
2023-02-22T09:02:21.716Z,10.90
2023-02-22T09:03:56.066Z,10.33
2023-02-22T09:05:31.542Z,10.23
2023-02-22T09:07:05.185Z,10.87
2023-02-22T09:08:38.255Z,10.47
2023-02-22T09:10:15.442Z,10.83
2023-02-22T09:11:52.063Z,9.97
2023-02-22T09:13:26.034Z,10.40
2023-02-22T09:14:59.104Z,10.77
2023-02-22T09:16:32.541Z,10.17
2023-02-22T09:18:08.526Z,10.97
2023-02-22T09:19:42.075Z,11.37
2023-02-22T09:21:17.882Z,10.80
2023-02-22T09:22:51.586Z,10.73
2023-02-22T09:24:25.491Z,10.87
2023-02-22T09:26:00.085Z,10.33
2023-02-22T09:27:33.192Z,10.07
2023-02-22T09:29:09.706Z,10.90
2023-02-22T09:30:44.049Z,10.80
2023-02-22T09:32:18.627Z,9.97
2023-02-22T09:33:52.384Z,10.23
2023-02-22T09:35:27.275Z,10.70
2023-02-22T09:37:02.419Z,11.57
2023-02-22T09:38:36.221Z,10.50
2023-02-22T09:40:12.003Z,10.63
2023-02-22T09:41:52.479Z,11.23
2023-02-22T09:43:40.611Z,10.47
2023-02-22T09:45:21.881Z,10.23
2023-02-22T09:46:56.260Z,11.03
2023-02-22T09:48:31.867Z,10.50
2023-02-22T09:50:15.529Z,11.20
2023-02-22T09:51:54.011Z,10.47
2023-02-22T09:53:33.250Z,10.57
2023-02-22T09:55:10.790Z,11.00
2023-02-22T09:56:46.908Z,11.73
2023-02-22T09:58:23.719Z,11.23
2023-02-22T10:00:02.131Z,11.20
2023-02-22T10:01:48.679Z,10.87
2023-02-22T10:03:25.941Z,10.60
2023-02-22T10:05:05.725Z,11.53
2023-02-22T10:06:43.611Z,10.20
2023-02-22T10:08:19.987Z,10.30
2023-02-22T10:09:57.465Z,10.60
2023-02-22T10:11:44.945Z,10.43
2023-02-22T10:13:28.903Z,10.33
2023-02-22T10:15:28.641Z,10.20
2023-02-22T10:17:09.695Z,10.10
2023-02-22T10:19:07.976Z,10.43
2023-02-22T10:20:51.940Z,10.37
2023-02-22T10:22:40.315Z,9.37
2023-02-22T10:24:27.039Z,9.27
2023-02-22T10:26:14.807Z,9.17
2023-02-22T10:27:54.491Z,9.67
2023-02-22T10:29:33.719Z,9.70
2023-02-22T10:31:09.729Z,9.27
2023-02-22T10:32:45.635Z,9.23
2023-02-22T10:34:23.458Z,8.93
2023-02-22T10:35:57.240Z,8.87
2023-02-22T10:37:32.626Z,9.67
2023-02-22T10:39:18.002Z,9.30
2023-02-22T10:40:55.880Z,9.23
2023-02-22T10:42:31.133Z,8.87
2023-02-22T10:44:04.646Z,9.43
2023-02-22T10:45:37.972Z,9.37
2023-02-22T10:47:16.605Z,8.27
2023-02-22T10:48:55.191Z,9.03
2023-02-22T10:50:30.741Z,8.50
2023-02-22T10:52:05.614Z,9.33
2023-02-22T10:53:39.601Z,8.93
2023-02-22T10:55:16.193Z,8.77
2023-02-22T10:56:52.736Z,8.50
2023-02-22T10:58:27.262Z,8.27
2023-02-22T11:00:19.607Z,8.80
2023-02-22T11:01:53.469Z,8.13
2023-02-22T11:03:26.596Z,8.13
2023-02-22T11:05:01.518Z,8.47
2023-02-22T11:06:36.214Z,7.80
2023-02-22T11:08:18.137Z,8.63
2023-02-22T11:09:54.393Z,8.60
2023-02-22T11:11:29.188Z,8.47
2023-02-22T11:13:18.414Z,8.20
2023-02-22T11:14:52.994Z,7.70
2023-02-22T11:16:32.682Z,7.93
2023-02-22T11:18:07.507Z,6.83
2023-02-22T11:19:48.688Z,6.80
2023-02-22T11:21:24.122Z,7.30
2023-02-22T11:23:00.978Z,6.97
2023-02-22T11:24:48.428Z,7.07
2023-02-22T11:26:22.320Z,7.10
2023-02-22T11:27:58.662Z,7.30
2023-02-22T11:29:34.332Z,7.40
2023-02-22T11:31:16.228Z,6.80
2023-02-22T11:32:52.362Z,6.33
2023-02-22T11:34:33.433Z,6.27
2023-02-22T11:36:10.211Z,6.63
2023-02-22T11:37:43.351Z,6.73
2023-02-22T11:39:26.884Z,6.90
2023-02-22T11:41:14.518Z,7.33
2023-02-22T11:42:48.002Z,7.20
2023-02-22T11:44:26.834Z,6.37
2023-02-22T11:46:03.930Z,7.13
2023-02-22T11:47:49.227Z,6.33
2023-02-22T11:49:25.376Z,6.17
2023-02-22T11:51:14.651Z,6.23
2023-02-22T11:52:55.494Z,6.00
2023-02-22T11:54:44.294Z,6.20
2023-02-22T11:56:28.469Z,6.00
2023-02-22T11:58:26.503Z,6.67
2023-02-22T12:00:16.752Z,5.93
2023-02-22T12:01:54.516Z,5.67
2023-02-22T12:03:52.290Z,5.67
2023-02-22T12:05:39.242Z,5.13
2023-02-22T12:07:18.493Z,5.07
2023-02-22T12:09:04.590Z,5.23
2023-02-22T12:10:49.812Z,4.90
2023-02-22T12:12:29.551Z,4.40
2023-02-22T12:14:11.456Z,4.37
2023-02-22T12:15:51.391Z,4.67
2023-02-22T12:17:35.006Z,4.97
2023-02-22T12:19:23.036Z,5.37
2023-02-22T12:20:59.534Z,4.00
2023-02-22T12:22:35.948Z,4.13
2023-02-22T12:24:14.605Z,4.20
2023-02-22T12:25:58.748Z,3.97
2023-02-22T12:27:38.604Z,3.93
2023-02-22T12:29:19.375Z,3.80
2023-02-22T12:31:02.377Z,3.30
2023-02-22T12:32:41.663Z,3.63
2023-02-22T12:34:29.107Z,4.00
2023-02-22T12:36:03.478Z,3.37
2023-02-22T12:37:45.958Z,3.57
2023-02-22T12:39:51.800Z,3.93
2023-02-22T12:41:31.487Z,3.60
2023-02-22T12:43:16.640Z,3.87
2023-02-22T12:44:56.918Z,4.00
2023-02-22T12:46:35.358Z,4.40
2023-02-22T12:48:25.864Z,4.17
2023-02-22T12:50:05.514Z,4.20
2023-02-22T12:51:45.366Z,4.03
2023-02-22T12:53:22.428Z,4.33
2023-02-22T12:55:02.533Z,3.87
2023-02-22T12:56:40.743Z,4.60
2023-02-22T12:58:25.388Z,4.60
2023-02-22T13:00:04.454Z,4.20
2023-02-22T13:01:41.318Z,4.63
2023-02-22T13:03:32.077Z,5.00
2023-02-22T13:05:08.056Z,4.40
2023-02-22T13:06:49.688Z,4.67
2023-02-22T13:08:30.924Z,4.60
2023-02-22T13:10:30.781Z,4.40
2023-02-22T13:12:12.199Z,4.63
2023-02-22T13:13:56.223Z,4.10
2023-02-22T13:15:34.374Z,4.70
2023-02-22T13:17:20.795Z,3.73
2023-02-22T13:19:01.132Z,4.10
2023-02-22T13:20:41.896Z,3.90
2023-02-22T13:22:23.861Z,4.40
2023-02-22T13:24:05.396Z,4.20
2023-02-22T13:25:46.143Z,4.50
2023-02-22T13:27:22.822Z,4.30
2023-02-22T13:29:02.634Z,4.07
2023-02-22T13:30:39.965Z,4.27
2023-02-22T13:32:24.772Z,4.20
2023-02-22T13:34:16.465Z,3.80
2023-02-22T13:36:13.578Z,4.00
2023-02-22T13:38:03.896Z,3.80
2023-02-22T13:39:54.613Z,3.50
2023-02-22T13:41:51.870Z,3.57
2023-02-22T13:43:46.364Z,3.93
2023-02-22T13:45:51.890Z,3.97
2023-02-22T13:47:43.515Z,3.63
2023-02-22T13:49:38.758Z,3.87
2023-02-22T13:51:20.644Z,4.40
2023-02-22T13:52:57.480Z,3.73
2023-02-22T13:54:38.199Z,3.83
2023-02-22T13:56:12.088Z,3.57
2023-02-22T13:57:48.731Z,3.87
2023-02-22T13:59:30.605Z,4.00
2023-02-22T14:01:03.706Z,3.40
2023-02-22T14:03:00.914Z,3.47
2023-02-22T14:04:41.280Z,3.40
2023-02-22T14:06:37.906Z,3.50
2023-02-22T14:08:42.007Z,3.70
2023-02-22T14:10:47.558Z,3.60
2023-02-22T14:12:48.435Z,3.50
2023-02-22T14:14:22.040Z,3.27
2023-02-22T14:16:21.306Z,3.50
2023-02-22T14:18:00.907Z,3.80
2023-02-22T14:19:34.012Z,3.77
2023-02-22T14:21:09.600Z,4.20
2023-02-22T14:22:46.956Z,3.97
2023-02-22T14:24:21.395Z,3.53
2023-02-22T14:25:55.076Z,3.70
2023-02-22T14:27:40.860Z,4.03
2023-02-22T14:29:19.519Z,3.90
2023-02-22T14:31:07.862Z,3.67
2023-02-22T14:32:41.110Z,3.77
2023-02-22T14:34:16.357Z,3.97
2023-02-22T14:35:52.542Z,3.70
2023-02-22T14:37:28.131Z,3.90
2023-02-22T14:39:13.437Z,3.80
2023-02-22T14:40:50.493Z,4.33
2023-02-22T14:42:30.188Z,4.13
2023-02-22T14:44:05.408Z,4.00
2023-02-22T14:45:45.567Z,4.13
2023-02-22T14:47:26.539Z,4.20
2023-02-22T14:49:05.106Z,4.13
2023-02-22T14:50:45.116Z,4.30
2023-02-22T14:52:24.126Z,4.50
2023-02-22T14:54:07.341Z,4.23
2023-02-22T14:55:44.970Z,4.00
2023-02-22T14:57:24.507Z,4.90
2023-02-22T14:59:10.081Z,4.10
2023-02-22T15:00:45.942Z,4.70
2023-02-22T15:02:19.565Z,4.80
2023-02-22T15:04:07.101Z,4.60
2023-02-22T15:05:41.884Z,4.50
2023-02-22T15:07:27.366Z,4.60
2023-02-22T15:09:12.460Z,4.93
2023-02-22T15:10:48.346Z,4.70
2023-02-22T15:12:29.861Z,4.53
2023-02-22T15:14:06.495Z,4.47
2023-02-22T15:15:43.840Z,5.00
2023-02-22T15:17:20.974Z,4.80
2023-02-22T15:18:55.931Z,5.43
2023-02-22T15:20:29.321Z,5.23
2023-02-22T15:22:03.913Z,5.50
2023-02-22T15:23:45.541Z,6.33
2023-02-22T15:25:26.463Z,5.83
2023-02-22T15:27:06.169Z,5.80
2023-02-22T15:28:40.056Z,5.70
2023-02-22T15:30:21.199Z,5.60
2023-02-22T15:31:56.800Z,5.97
2023-02-22T15:33:37.975Z,5.63
2023-02-22T15:35:16.972Z,5.50
2023-02-22T15:36:54.424Z,6.00
2023-02-22T15:38:30.772Z,5.93
2023-02-22T15:40:14.395Z,6.53
2023-02-22T15:41:48.853Z,6.23
2023-02-22T15:43:28.513Z,5.93
2023-02-22T15:45:01.677Z,6.03
2023-02-22T15:46:35.604Z,6.67
2023-02-22T15:48:10.846Z,6.83
2023-02-22T15:49:44.138Z,7.13
2023-02-22T15:51:19.415Z,7.20
2023-02-22T15:52:58.475Z,7.40
2023-02-22T15:54:38.584Z,6.97
2023-02-22T15:56:15.949Z,7.43
2023-02-22T15:57:52.044Z,7.17
2023-02-22T15:59:30.467Z,8.03
2023-02-22T16:01:06.626Z,7.50
2023-02-22T16:02:41.688Z,6.87
2023-02-22T16:04:18.884Z,8.47
2023-02-22T16:05:55.645Z,7.70
2023-02-22T16:07:29.473Z,8.07
2023-02-22T16:09:08.957Z,8.53
2023-02-22T16:10:51.046Z,7.97
2023-02-22T16:12:29.487Z,8.53
2023-02-22T16:14:05.911Z,9.67
2023-02-22T16:15:39.012Z,9.93
2023-02-22T16:17:36.492Z,10.60
2023-02-22T16:19:34.461Z,10.27
2023-02-22T16:21:11.819Z,10.57
2023-02-22T16:22:49.508Z,11.30
2023-02-22T16:24:30.333Z,10.80
2023-02-22T16:26:21.861Z,12.17
2023-02-22T16:27:57.932Z,11.30
2023-02-22T16:29:31.656Z,11.57
2023-02-22T16:31:05.081Z,11.33
2023-02-22T16:32:38.555Z,11.57
2023-02-22T16:34:11.643Z,12.63
2023-02-22T16:35:51.846Z,12.67
2023-02-22T16:37:25.301Z,12.73
2023-02-22T16:38:58.387Z,12.30
2023-02-22T16:40:34.908Z,13.33
2023-02-22T16:42:10.462Z,12.73
2023-02-22T16:43:46.232Z,12.67
2023-02-22T16:45:22.958Z,13.30
2023-02-22T16:46:57.832Z,13.77
2023-02-22T16:48:32.697Z,13.97
2023-02-22T16:50:06.941Z,13.00
2023-02-22T16:51:45.133Z,13.77
2023-02-22T16:53:20.197Z,13.90
2023-02-22T16:54:53.640Z,14.03
2023-02-22T16:56:31.178Z,14.33
2023-02-22T16:58:05.861Z,14.93
2023-02-22T16:59:40.658Z,14.60
2023-02-22T17:01:15.399Z,15.83
2023-02-22T17:02:48.673Z,14.80
2023-02-22T17:04:24.099Z,15.13
2023-02-22T17:05:57.235Z,14.93
2023-02-22T17:07:31.652Z,15.10
2023-02-22T17:09:04.811Z,15.50
2023-02-22T17:10:38.545Z,15.23
2023-02-22T17:12:11.706Z,15.07
2023-02-22T17:13:45.722Z,14.97
2023-02-22T17:15:26.458Z,15.93
2023-02-22T17:17:01.206Z,16.20
2023-02-22T17:18:35.659Z,16.20
2023-02-22T17:20:12.390Z,15.20
2023-02-22T17:21:45.556Z,15.57
2023-02-22T17:23:19.337Z,16.33
2023-02-22T17:24:52.407Z,16.87
2023-02-22T17:26:26.213Z,16.77
2023-02-22T17:27:59.315Z,15.63
2023-02-22T17:29:32.446Z,17.33
2023-02-22T17:31:06.417Z,16.50
2023-02-22T17:32:40.402Z,16.53
2023-02-22T17:34:13.542Z,16.93
2023-02-22T17:35:47.964Z,17.70
2023-02-22T17:37:21.099Z,17.60
2023-02-22T17:38:54.338Z,17.37
2023-02-22T17:40:27.492Z,18.30
2023-02-22T17:42:00.696Z,17.57
2023-02-22T17:43:33.749Z,17.10
2023-02-22T17:45:07.518Z,16.30
2023-02-22T17:46:41.805Z,17.03
2023-02-22T17:48:18.380Z,16.97
2023-02-22T17:49:51.453Z,16.67
2023-02-22T17:51:26.630Z,18.93
2023-02-22T17:53:01.539Z,17.63
2023-02-22T17:54:35.130Z,17.40
2023-02-22T17:56:09.301Z,17.13
2023-02-22T17:57:44.115Z,18.20
2023-02-22T17:59:17.191Z,17.70
2023-02-22T18:00:51.873Z,17.33
2023-02-22T18:02:25.060Z,18.00
2023-02-22T18:04:01.665Z,17.90
2023-02-22T18:05:39.789Z,17.97
2023-02-22T18:07:14.228Z,18.30
2023-02-22T18:08:47.329Z,17.70
2023-02-22T18:10:20.827Z,18.63
2023-02-22T18:11:53.874Z,18.20
2023-02-22T18:13:28.309Z,19.10
2023-02-22T18:15:01.415Z,18.73
2023-02-22T18:16:36.337Z,18.33
2023-02-22T18:18:10.015Z,18.43
2023-02-22T18:19:45.075Z,18.53
2023-02-22T18:21:18.263Z,17.83
2023-02-22T18:22:51.528Z,17.30
2023-02-22T18:24:24.622Z,18.53
2023-02-22T18:26:10.181Z,19.03
2023-02-22T18:27:44.421Z,19.23
2023-02-22T18:29:17.466Z,19.77
2023-02-22T18:30:54.547Z,19.00
2023-02-22T18:32:30.836Z,19.27
2023-02-22T18:34:04.784Z,19.07
2023-02-22T18:35:39.544Z,19.23
2023-02-22T18:37:12.798Z,18.33
2023-02-22T18:38:46.013Z,19.07
2023-02-22T18:40:19.215Z,19.33
2023-02-22T18:41:52.288Z,19.47
2023-02-22T18:43:25.561Z,19.47
2023-02-22T18:45:00.694Z,19.30
2023-02-22T18:46:34.074Z,19.43
2023-02-22T18:48:07.150Z,19.43
2023-02-22T18:49:41.945Z,18.60
2023-02-22T18:51:18.188Z,18.67
2023-02-22T18:52:51.256Z,18.87
2023-02-22T18:54:24.442Z,18.97
2023-02-22T18:55:57.704Z,19.00
2023-02-22T18:57:30.795Z,19.00
2023-02-22T18:59:05.345Z,18.00
2023-02-22T19:00:38.554Z,18.37
2023-02-22T19:02:14.361Z,18.20
2023-02-22T19:03:48.107Z,17.50
2023-02-22T19:05:21.300Z,18.67
2023-02-22T19:06:57.576Z,19.27
2023-02-22T19:08:32.520Z,18.67
2023-02-22T19:10:06.427Z,18.87
2023-02-22T19:11:44.642Z,18.57
2023-02-22T19:13:18.947Z,18.37
2023-02-22T19:14:52.130Z,17.43
2023-02-22T19:16:27.107Z,18.50
2023-02-22T19:18:00.248Z,19.23
2023-02-22T19:19:33.288Z,17.47
2023-02-22T19:21:08.971Z,18.23
2023-02-22T19:22:43.436Z,17.63
2023-02-22T19:24:18.827Z,17.80
2023-02-22T19:25:52.118Z,18.20
2023-02-22T19:27:27.687Z,18.30
2023-02-22T19:29:06.163Z,16.67
2023-02-22T19:30:42.357Z,16.93
2023-02-22T19:32:17.266Z,16.93
2023-02-22T19:33:52.226Z,18.23
2023-02-22T19:35:28.077Z,17.87
2023-02-22T19:37:01.836Z,16.83
2023-02-22T19:38:36.287Z,17.90
2023-02-22T19:40:10.711Z,16.87
2023-02-22T19:41:44.245Z,17.53
2023-02-22T19:43:17.536Z,17.17
2023-02-22T19:44:52.605Z,16.43
2023-02-22T19:46:25.974Z,17.17
2023-02-22T19:47:59.081Z,17.20
2023-02-22T19:49:32.399Z,17.33
2023-02-22T19:51:07.258Z,17.33
2023-02-22T19:52:40.916Z,16.77
2023-02-22T19:54:17.449Z,18.00
2023-02-22T19:55:50.592Z,17.00
2023-02-22T19:57:24.826Z,16.53
2023-02-22T19:59:00.732Z,17.20
2023-02-22T20:00:35.590Z,17.00
2023-02-22T20:02:11.802Z,16.93
2023-02-22T20:03:45.118Z,16.67
2023-02-22T20:05:18.485Z,16.40
2023-02-22T20:06:54.942Z,16.20
2023-02-22T20:08:28.352Z,16.70
2023-02-22T20:10:02.762Z,16.37
2023-02-22T20:11:36.288Z,18.47
2023-02-22T20:13:11.772Z,16.90
2023-02-22T20:14:46.190Z,17.20
2023-02-22T20:16:19.300Z,16.63
2023-02-22T20:17:52.887Z,16.40
2023-02-22T20:19:26.761Z,17.23
2023-02-22T20:21:00.044Z,17.07
2023-02-22T20:22:33.132Z,15.50
2023-02-22T20:24:08.530Z,16.63
2023-02-22T20:25:43.031Z,17.13
2023-02-22T20:27:16.516Z,17.40
2023-02-22T20:28:50.045Z,17.00
2023-02-22T20:30:23.418Z,18.00
2023-02-22T20:31:57.865Z,17.90
2023-02-22T20:33:31.274Z,16.77
2023-02-22T20:35:04.731Z,17.33
2023-02-22T20:36:39.774Z,17.87
2023-02-22T20:38:13.865Z,18.17
2023-02-22T20:39:46.905Z,16.80
2023-02-22T20:41:24.798Z,17.73
2023-02-22T20:42:57.944Z,18.43
2023-02-22T20:44:31.184Z,17.50
2023-02-22T20:46:05.269Z,17.57
2023-02-22T20:47:38.419Z,18.13
2023-02-22T20:49:14.852Z,18.80
2023-02-22T20:50:47.883Z,18.37
2023-02-22T20:52:21.018Z,18.03
2023-02-22T20:53:54.437Z,18.37
2023-02-22T20:55:27.630Z,18.77
2023-02-22T20:57:02.122Z,18.70
2023-02-22T20:58:35.253Z,18.37
2023-02-22T21:00:10.587Z,18.13
2023-02-22T21:01:44.139Z,18.40
2023-02-22T21:03:17.237Z,17.53
2023-02-22T21:04:50.389Z,17.33
2023-02-22T21:06:24.033Z,18.13
2023-02-22T21:07:58.479Z,18.43
2023-02-22T21:09:32.484Z,18.67
2023-02-22T21:11:11.668Z,18.97
2023-02-22T21:12:47.821Z,18.80